Time;durP1;ratioP1;P1;durP2;ratioP2;P2;SDS_P1;SDS_P2;PMS_P1;PMS_P2;Temp;Humidity;BMP_temperature;BMP_pressure;BME280_temperature;BME280_humidity;BME280_pressure;Samples;Min_cycle;Max_cycle;Signal;HPM_P1;HPM_P2
2023/03/29 00:02:16;;;;;;;;;;;;;;;4.88;100.00;101516.81;5293558;28;19998;-67
2023/03/29 00:04:48;;;;;;;;;;;;;;;4.85;100.00;101513.44;5287245;28;20064;-67
2023/03/29 00:07:22;;;;;;;;;;;;;;;4.83;100.00;101504.72;5284713;28;19924;-67
2023/03/29 00:09:53;;;;;;;;;;;;;;;4.84;100.00;101501.16;5287033;28;19920;-67
2023/03/29 00:12:25;;;;;;;;;;;;;;;4.85;100.00;101501.13;5277584;28;19927;-67
2023/03/29 00:14:56;;;;;;;;;;;;;;;4.85;100.00;101501.13;5281645;28;20385;-67
2023/03/29 00:17:28;;;;;;;;;;;;;;;4.89;100.00;101504.50;5281285;28;20340;-67
2023/03/29 00:19:59;;;;;;;;;;;;;;;4.88;100.00;101490.38;5282736;28;19960;-66
2023/03/29 00:22:30;;;;;;;;;;;;;;;4.89;100.00;101493.91;5284921;28;19915;-67
2023/03/29 00:25:02;;;;;;;;;;;;;;;4.91;100.00;101486.78;5282941;28;19973;-67
2023/03/29 00:27:33;;;;;;;;;;;;;;;4.90;100.00;101488.53;5281061;28;19924;-66
2023/03/29 00:30:06;;;;;;;;;;;;;;;4.90;100.00;101488.53;5280780;28;20473;-67
2023/03/29 00:32:37;;;;;;;;;;;;;;;4.91;100.00;101484.97;5285688;28;19915;-67
2023/03/29 00:35:08;;;;;;;;;;;;;;;4.93;100.00;101487.56;5282852;28;20723;-69
2023/03/29 00:37:40;;;;;;;;;;;;;;;4.95;100.00;101482.19;5284889;28;20294;-67
2023/03/29 00:40:11;;;;;;;;;;;;;;;4.96;100.00;101483.91;5281527;28;20416;-67
2023/03/29 00:42:44;;;;;;;;;;;;;;;4.96;100.00;101489.22;5283212;28;19920;-67
2023/03/29 00:45:21;;;;;;;;;;;;;;;4.96;100.00;101486.56;5285055;28;19920;-67
2023/03/29 00:47:58;;;;;;;;;;;;;;;4.97;100.00;101489.16;5279522;28;19928;-67
2023/03/29 00:50:42;;;;;;;;;;;;;;;4.97;100.00;101483.88;5288107;28;19912;-67
2023/03/29 00:53:20;;;;;;;;;;;;;;;4.98;100.00;101482.06;5290620;28;19927;-67
2023/03/29 00:56:10;;;;;;;;;;;;;;;5.00;100.00;101477.56;5299555;28;19915;-67
2023/03/29 00:58:46;;;;;;;;;;;;;;;5.00;100.00;101467.84;5303448;28;19969;-67
2023/03/29 01:01:29;;;;;;;;;;;;;;;5.02;100.00;101466.00;5289400;28;19923;-67
2023/03/29 01:04:03;;;;;;;;;;;;;;;5.03;100.00;101461.59;5288616;28;19916;-67
2023/03/29 01:06:36;;;;;;;;;;;;;;;5.03;100.00;101457.16;5289064;28;20211;-67
2023/03/29 01:09:11;;;;;;;;;;;;;;;5.05;100.00;101455.28;5290454;28;19913;-67
2023/03/29 01:11:45;;;;;;;;;;;;;;;5.07;100.00;101452.59;5293758;28;20271;-67
2023/03/29 01:14:25;;;;;;;;;;;;;;;5.08;100.00;101454.28;5285847;28;19959;-67
2023/03/29 01:16:56;;;;;;;;;;;;;;;5.09;100.00;101461.31;5287736;28;20308;-67
2023/03/29 01:19:31;;;;;;;;;;;;;;;5.11;100.00;101451.53;5291353;28;20009;-67
2023/03/29 01:22:27;;;;;;;;;;;;;;;5.14;100.00;101453.16;5282272;28;19924;-67
2023/03/29 01:24:58;;;;;;;;;;;;;;;5.14;100.00;101443.47;5283780;28;20392;-67
2023/03/29 01:27:30;;;;;;;;;;;;;;;5.15;100.00;101444.31;5291484;28;19924;-67
2023/03/29 01:30:06;;;;;;;;;;;;;;;5.14;100.00;101432.88;5294468;28;19919;-67
2023/03/29 01:32:41;;;;;;;;;;;;;;;5.16;100.00;101438.97;5282826;28;19942;-67
2023/03/29 01:35:15;;;;;;;;;;;;;;;5.18;100.00;101423.88;5290690;28;19916;-68
2023/03/29 01:38:08;;;;;;;;;;;;;;;5.20;100.00;101429.97;5291322;28;20033;-67
2023/03/29 01:40:40;;;;;;;;;;;;;;;5.23;100.00;101432.44;5291597;28;19920;-67
2023/03/29 01:43:14;;;;;;;;;;;;;;;5.25;100.00;101419.16;5290683;28;19922;-67
2023/03/29 01:45:51;;;;;;;;;;;;;;;5.25;100.00;101420.03;5279551;28;19920;-67
2023/03/29 01:48:25;;;;;;;;;;;;;;;5.28;100.00;101430.47;5280250;28;20362;-67
2023/03/29 01:51:03;;;;;;;;;;;;;;;5.30;100.00;101418.03;5277406;28;19923;-67
2023/03/29 01:53:44;;;;;;;;;;;;;;;5.34;100.00;101417.91;5280415;28;20018;-67
2023/03/29 01:56:18;;;;;;;;;;;;;;;5.35;100.00;101403.72;5277111;28;19916;-67
2023/03/29 01:58:51;;;;;;;;;;;;;;;5.37;100.00;101404.50;5275447;28;20306;-67
2023/03/29 02:01:24;;;;;;;;;;;;;;;5.37;100.00;101399.22;5274199;28;19917;-67
2023/03/29 02:03:59;;;;;;;;;;;;;;;5.38;100.00;101390.38;5273838;28;19921;-67
2023/03/29 02:06:31;;;;;;;;;;;;;;;5.37;100.00;101389.50;5274451;28;19924;-67
2023/03/29 02:09:03;;;;;;;;;;;;;;;5.41;100.00;101390.22;5285999;28;19955;-67
2023/03/29 02:11:35;;;;;;;;;;;;;;;5.39;100.00;101386.78;5289755;28;19915;-67
2023/03/29 02:14:06;;;;;;;;;;;;;;;5.39;100.00;101390.28;5284298;28;20295;-67
2023/03/29 02:16:38;;;;;;;;;;;;;;;5.40;100.00;101377.91;5285872;28;19912;-67
2023/03/29 02:19:09;;;;;;;;;;;;;;;5.40;100.00;101384.06;5283381;28;20385;-67
2023/03/29 02:21:50;;;;;;;;;;;;;;;5.43;100.00;101375.16;5287267;28;20294;-67
2023/03/29 02:24:23;;;;;;;;;;;;;;;5.45;100.00;101370.63;5284511;28;20296;-67
2023/03/29 02:26:55;;;;;;;;;;;;;;;5.46;100.00;101370.53;5281870;28;20017;-67
2023/03/29 02:29:26;;;;;;;;;;;;;;;5.45;100.00;101365.34;5285373;28;20015;-67
2023/03/29 02:32:05;;;;;;;;;;;;;;;5.47;100.00;101360.84;5282445;28;19931;-67
2023/03/29 02:34:40;;;;;;;;;;;;;;;5.47;100.00;101358.19;5284393;28;20037;-67
2023/03/29 02:37:14;;;;;;;;;;;;;;;5.47;100.00;101363.47;5282483;28;19915;-67
2023/03/29 02:39:48;;;;;;;;;;;;;;;5.49;100.00;101354.53;5283924;28;19954;-67
2023/03/29 02:42:21;;;;;;;;;;;;;;;5.50;100.00;101355.38;5284392;28;19927;-67
2023/03/29 02:44:54;;;;;;;;;;;;;;;5.54;100.00;101356.09;5285061;28;19916;-67
2023/03/29 02:47:28;;;;;;;;;;;;;;;5.53;100.00;101342.00;5277129;28;19924;-67
2023/03/29 02:50:00;;;;;;;;;;;;;;;5.55;100.00;101337.50;5275116;28;19912;-65
2023/03/29 02:52:34;;;;;;;;;;;;;;;5.57;100.00;101340.94;5273525;28;19920;-67
2023/03/29 02:55:08;;;;;;;;;;;;;;;5.57;100.00;101330.34;5277715;28;19922;-67
2023/03/29 02:57:42;;;;;;;;;;;;;;;5.59;100.00;101338.22;5272333;28;19949;-67
2023/03/29 03:00:18;;;;;;;;;;;;;;;5.59;100.00;101331.13;5271580;28;19916;-67
2023/03/29 03:02:50;;;;;;;;;;;;;;;5.60;100.00;101327.56;5273928;28;19955;-67
2023/03/29 03:05:22;;;;;;;;;;;;;;;5.64;100.00;101330.91;5276622;28;19916;-67
2023/03/29 03:07:53;;;;;;;;;;;;;;;5.65;100.00;101329.97;5273894;28;19962;-67
2023/03/29 03:10:25;;;;;;;;;;;;;;;5.65;100.00;101330.81;5277997;28;20257;-67
2023/03/29 03:12:56;;;;;;;;;;;;;;;5.67;100.00;101334.25;5288727;28;20007;-67
2023/03/29 03:15:28;;;;;;;;;;;;;;;5.69;100.00;101324.47;5276373;28;19928;-67
2023/03/29 03:17:59;;;;;;;;;;;;;;;5.72;100.00;101322.59;5274446;28;20014;-67
2023/03/29 03:20:30;;;;;;;;;;;;;;;5.73;100.00;101322.50;5273747;28;19928;-67
2023/03/29 03:23:02;;;;;;;;;;;;;;;5.75;100.00;101320.63;5274391;28;20404;-67
2023/03/29 03:25:34;;;;;;;;;;;;;;;5.75;100.00;101310.06;5275011;28;19920;-67
2023/03/29 03:28:05;;;;;;;;;;;;;;;5.77;100.00;101309.97;5273807;28;20803;-67
2023/03/29 03:30:36;;;;;;;;;;;;;;;5.77;100.00;101302.91;5274592;28;19920;-67
2023/03/29 03:33:08;;;;;;;;;;;;;;;5.78;100.00;101309.06;5274426;28;19974;-67
2023/03/29 03:35:39;;;;;;;;;;;;;;;5.80;100.00;101304.56;5275649;28;20015;-67
2023/03/29 03:38:11;;;;;;;;;;;;;;;5.81;100.00;101311.53;5277057;28;19916;-67
2023/03/29 03:40:42;;;;;;;;;;;;;;;5.81;100.00;101312.44;5277046;28;20021;-67
2023/03/29 03:43:14;;;;;;;;;;;;;;;5.81;100.00;101312.44;5286990;28;20010;-67
2023/03/29 03:45:45;;;;;;;;;;;;;;;5.83;100.00;101307.03;5286055;28;19924;-67
2023/03/29 03:48:17;;;;;;;;;;;;;;;5.83;100.00;101313.22;5273938;28;19931;-67
2023/03/29 03:50:49;;;;;;;;;;;;;;;5.83;100.00;101315.84;5267897;28;19916;-67
2023/03/29 03:53:21;;;;;;;;;;;;;;;5.85;100.00;101315.78;5274623;28;19916;-67
2023/03/29 03:55:54;;;;;;;;;;;;;;;5.87;100.00;101305.97;5272837;28;19920;-67
2023/03/29 03:58:26;;;;;;;;;;;;;;;5.88;100.00;101305.88;5275021;28;19921;-67
2023/03/29 04:00:57;;;;;;;;;;;;;;;5.88;100.00;101311.16;5281946;28;20270;-67
2023/03/29 04:03:30;;;;;;;;;;;;;;;5.88;100.00;101297.91;5273313;28;19997;-67
2023/03/29 04:06:02;;;;;;;;;;;;;;;5.89;100.00;101298.81;5270130;28;19920;-66
2023/03/29 04:08:33;;;;;;;;;;;;;;;5.89;100.00;101299.66;5282254;28;19917;-67
2023/03/29 04:11:06;;;;;;;;;;;;;;;5.89;100.00;101297.00;5283848;28;20543;-67
2023/03/29 04:13:37;;;;;;;;;;;;;;;5.89;100.00;101297.00;5294267;28;19958;-67
2023/03/29 04:16:08;;;;;;;;;;;;;;;5.89;100.00;101294.34;5288803;28;19916;-67
2023/03/29 04:18:40;;;;;;;;;;;;;;;5.90;100.00;101295.22;5282283;28;19934;-67
2023/03/29 04:21:11;;;;;;;;;;;;;;;5.90;100.00;101289.91;5289285;28;20331;-67
2023/03/29 04:23:45;;;;;;;;;;;;;;;5.90;100.00;101285.47;5284609;28;20385;-67
2023/03/29 04:26:16;;;;;;;;;;;;;;;5.92;100.00;101295.97;5287358;28;19920;-67
2023/03/29 04:28:48;;;;;;;;;;;;;;;5.94;100.00;101287.97;5285754;28;19920;-67
2023/03/29 04:31:19;;;;;;;;;;;;;;;5.92;100.00;101287.19;5285743;28;19912;-67
2023/03/29 04:33:51;;;;;;;;;;;;;;;5.93;100.00;101278.31;5284127;28;19915;-67
2023/03/29 04:36:22;;;;;;;;;;;;;;;5.93;100.00;101294.22;5287370;28;19912;-69
2023/03/29 04:38:53;;;;;;;;;;;;;;;5.95;100.00;101287.06;5284456;28;19916;-67
2023/03/29 04:41:26;;;;;;;;;;;;;;;5.94;100.00;101287.97;5285229;28;20251;-67
2023/03/29 04:43:57;;;;;;;;;;;;;;;5.96;100.00;101286.13;5287975;28;19916;-67
2023/03/29 04:46:28;;;;;;;;;;;;;;;5.96;100.00;101280.84;5282107;28;19931;-67
2023/03/29 04:49:00;;;;;;;;;;;;;;;5.96;100.00;101286.97;5286631;28;19912;-67
2023/03/29 04:51:32;;;;;;;;;;;;;;;5.96;100.00;101284.34;5285340;28;19919;-67
2023/03/29 04:54:03;;;;;;;;;;;;;;;5.98;100.00;101281.63;5285159;28;20026;-67
2023/03/29 04:56:34;;;;;;;;;;;;;;;6.00;100.00;101279.75;5285711;28;19922;-67
2023/03/29 04:59:06;;;;;;;;;;;;;;;6.00;100.00;101275.31;5283054;28;19962;-67
2023/03/29 05:01:37;;;;;;;;;;;;;;;5.99;100.00;101275.41;5292154;28;19927;-66
2023/03/29 05:04:08;;;;;;;;;;;;;;;6.01;100.00;101276.16;5295280;28;19919;-68
2023/03/29 05:06:41;;;;;;;;;;;;;;;6.06;100.00;101272.34;5287287;28;19916;-67
2023/03/29 05:09:12;;;;;;;;;;;;;;;6.06;100.00;101279.47;5292238;28;19916;-67
2023/03/29 05:11:43;;;;;;;;;;;;;;;6.06;100.00;101275.00;5290964;28;19951;-67
2023/03/29 05:14:15;;;;;;;;;;;;;;;6.08;100.00;101267.84;5286506;28;19970;-67
2023/03/29 05:16:46;;;;;;;;;;;;;;;6.10;100.00;101267.75;5282319;28;19923;-67
2023/03/29 05:19:20;;;;;;;;;;;;;;;6.12;100.00;101272.97;5283274;28;20558;-67
2023/03/29 05:21:51;;;;;;;;;;;;;;;6.13;100.00;101264.09;5293090;28;19920;-67
2023/03/29 05:24:23;;;;;;;;;;;;;;;6.13;100.00;101272.88;5292135;28;20354;-67
2023/03/29 05:26:55;;;;;;;;;;;;;;;6.15;100.00;101267.50;5292119;28;20277;-66
2023/03/29 05:29:26;;;;;;;;;;;;;;;6.16;100.00;101272.75;5294229;28;19923;-67
2023/03/29 05:31:58;;;;;;;;;;;;;;;6.18;100.00;101270.88;5284651;28;20425;-67
2023/03/29 05:34:30;;;;;;;;;;;;;;;6.19;100.00;101280.50;5287050;28;20365;-67
2023/03/29 05:37:02;;;;;;;;;;;;;;;6.20;100.00;101281.41;5291520;28;19942;-67
2023/03/29 05:39:33;;;;;;;;;;;;;;;6.22;100.00;101287.47;5294204;28;20382;-67
2023/03/29 05:42:05;;;;;;;;;;;;;;;6.24;100.00;101294.41;5289108;28;19916;-67
2023/03/29 05:44:36;;;;;;;;;;;;;;;6.26;100.00;101292.53;5295080;28;19977;-66
2023/03/29 05:47:07;;;;;;;;;;;;;;;6.27;100.00;101278.34;5291642;28;19922;-67
2023/03/29 05:49:39;;;;;;;;;;;;;;;6.32;100.00;101283.41;5288051;28;19985;-67
2023/03/29 05:52:10;;;;;;;;;;;;;;;6.35;100.00;101285.03;5292846;28;19963;-68
2023/03/29 05:54:41;;;;;;;;;;;;;;;6.35;100.00;101285.91;5289865;28;20467;-67
2023/03/29 05:57:12;;;;;;;;;;;;;;;6.38;100.00;101290.19;5281269;28;19916;-67
2023/03/29 05:59:44;;;;;;;;;;;;;;;6.40;100.00;101288.31;5287234;28;19919;-66
2023/03/29 06:02:15;;;;;;;;;;;;;;;6.42;100.00;101289.09;5289432;28;20336;-67
2023/03/29 06:04:47;;;;;;;;;;;;;;;6.44;100.00;101289.84;5290434;28;20617;-67
2023/03/29 06:07:18;;;;;;;;;;;;;;;6.46;100.00;101291.50;5287919;28;20626;-67
2023/03/29 06:09:49;;;;;;;;;;;;;;;6.48;100.00;101283.44;5283179;28;19969;-67
2023/03/29 06:12:21;;;;;;;;;;;;;;;6.50;100.00;101289.56;5284945;28;19916;-67
2023/03/29 06:14:52;;;;;;;;;;;;;;;6.53;100.00;101289.38;5291073;28;19923;-67
2023/03/29 06:17:23;;;;;;;;;;;;;;;6.56;100.00;101291.00;5290333;28;20386;-67
2023/03/29 06:19:56;;;;;;;;;;;;;;;6.58;100.00;101291.81;5286958;28;20021;-67
2023/03/29 06:22:27;;;;;;;;;;;;;;;6.61;100.00;101300.44;5288010;28;20404;-67
2023/03/29 06:24:59;;;;;;;;;;;;;;;6.63;100.00;101292.41;5288046;28;20417;-67
2023/03/29 06:27:31;;;;;;;;;;;;;;;6.66;100.00;101294.91;5285644;28;20380;-67
2023/03/29 06:30:03;;;;;;;;;;;;;;;6.68;100.00;101293.88;5290527;28;19931;-67
2023/03/29 06:32:34;;;;;;;;;;;;;;;6.72;100.00;101294.56;5289064;28;19920;-67
2023/03/29 06:35:06;;;;;;;;;;;;;;;6.76;100.00;101292.63;5285312;28;19923;-67
2023/03/29 06:37:39;;;;;;;;;;;;;;;6.80;100.00;101287.06;5286046;28;20621;-67
2023/03/29 06:40:12;;;;;;;;;;;;;;;6.83;100.00;101284.25;5288708;28;19923;-67
2023/03/29 06:42:44;;;;;;;;;;;;;;;6.86;100.00;101292.06;5285919;28;19927;-67
2023/03/29 06:45:16;;;;;;;;;;;;;;;6.91;100.00;101288.28;5286957;28;19919;-67
2023/03/29 06:47:47;;;;;;;;;;;;;;;6.94;100.00;101289.00;5287367;28;19923;-67
2023/03/29 06:50:18;;;;;;;;;;;;;;;6.98;100.00;101282.56;5287256;28;20392;-67
2023/03/29 06:52:50;;;;;;;;;;;;;;;7.02;100.00;101288.56;5284412;28;19915;-67
2023/03/29 06:55:22;;;;;;;;;;;;;;;7.07;100.00;101287.34;5284654;28;19919;-67
2023/03/29 06:57:53;;;;;;;;;;;;;;;7.14;100.00;101284.38;5288647;28;19915;-67
2023/03/29 07:00:27;;;;;;;;;;;;;;;7.20;100.00;101284.88;5288877;28;19973;-67
2023/03/29 07:03:03;;;;;;;;;;;;;;;7.25;100.00;101288.16;5285782;28;19938;-67
2023/03/29 07:05:39;;;;;;;;;;;;;;;7.33;100.00;101290.38;5283406;28;19923;-67
2023/03/29 07:08:12;;;;;;;;;;;;;;;7.38;100.00;101298.06;5283023;28;20497;-67
2023/03/29 07:10:46;;;;;;;;;;;;;;;7.42;100.00;101303.16;5286469;28;20328;-67
2023/03/29 07:13:17;;;;;;;;;;;;;;;7.45;100.00;101297.66;5286295;28;19920;-67
2023/03/29 07:15:48;;;;;;;;;;;;;;;7.48;100.00;101299.28;5289869;28;19927;-67
2023/03/29 07:18:20;;;;;;;;;;;;;;;7.51;100.00;101299.09;5283281;28;19973;-67
2023/03/29 07:20:51;;;;;;;;;;;;;;;7.55;100.00;101297.97;5286944;28;20285;-66
2023/03/29 07:23:23;;;;;;;;;;;;;;;7.59;100.00;101301.31;5289109;28;19945;-66
2023/03/29 07:25:54;;;;;;;;;;;;;;;7.63;100.00;101303.75;5290124;28;20340;-67
2023/03/29 07:28:25;;;;;;;;;;;;;;;7.68;100.00;101315.88;5282596;28;20397;-67
2023/03/29 07:31:01;;;;;;;;;;;;;;;7.71;100.00;101307.72;5282965;28;19920;-66
2023/03/29 07:33:33;;;;;;;;;;;;;;;7.73;100.00;101309.38;5288446;28;19923;-68
2023/03/29 07:36:05;;;;;;;;;;;;;;;7.78;100.00;101322.38;5287017;28;19934;-67
2023/03/29 07:38:36;;;;;;;;;;;;;;;7.82;100.00;101326.56;5285511;28;19916;-67
2023/03/29 07:41:08;;;;;;;;;;;;;;;7.86;100.00;101333.41;5289674;28;20062;-67
2023/03/29 07:43:39;;;;;;;;;;;;;;;7.89;100.00;101335.06;5290758;28;20348;-67
2023/03/29 07:46:11;;;;;;;;;;;;;;;7.92;100.00;101332.22;5289264;28;19919;-67
2023/03/29 07:48:43;;;;;;;;;;;;;;;7.93;100.00;101345.41;5290333;28;19931;-67
2023/03/29 07:51:15;;;;;;;;;;;;;;;7.96;100.00;101337.28;5284058;28;19924;-67
2023/03/29 07:53:46;;;;;;;;;;;;;;;7.99;100.00;101330.91;5296813;28;19912;-67
2023/03/29 07:56:18;;;;;;;;;;;;;;;8.01;100.00;101332.53;5295980;28;19978;-67
2023/03/29 07:58:49;;;;;;;;;;;;;;;8.03;100.00;101333.34;5293546;28;20370;-67
2023/03/29 08:01:20;;;;;;;;;;;;;;;8.05;100.00;101338.53;5288431;28;19923;-67
2023/03/29 08:03:52;;;;;;;;;;;;;;;8.08;100.00;101327.72;5290398;28;19965;-67
2023/03/29 08:06:25;;;;;;;;;;;;;;;8.12;100.00;101336.38;5294214;28;19928;-68
2023/03/29 08:08:57;;;;;;;;;;;;;;;8.15;100.00;101333.53;5296844;28;19923;-67
2023/03/29 08:11:28;;;;;;;;;;;;;;;8.17;100.00;101332.50;5296361;28;19919;-67
2023/03/29 08:14:00;;;;;;;;;;;;;;;8.20;100.00;101332.31;5296337;28;19915;-67
2023/03/29 08:16:31;;;;;;;;;;;;;;;8.22;100.00;101340.22;5292393;28;19916;-67
2023/03/29 08:19:03;;;;;;;;;;;;;;;8.25;100.00;101338.22;5295612;28;19973;-66
2023/03/29 08:21:34;;;;;;;;;;;;;;;8.31;100.00;101338.81;5292391;28;19980;-67
2023/03/29 08:24:05;;;;;;;;;;;;;;;8.35;100.00;101332.38;5292411;28;19924;-67
2023/03/29 08:26:37;;;;;;;;;;;;;;;8.40;100.00;101327.66;5294632;28;20698;-68
2023/03/29 08:29:08;;;;;;;;;;;;;;;8.47;100.00;101325.50;5295490;28;19927;-67
2023/03/29 08:31:39;;;;;;;;;;;;;;;8.53;100.00;101310.00;5294756;28;19936;-67
2023/03/29 08:34:11;;;;;;;;;;;;;;;8.61;100.00;101322.84;5297808;28;19912;-67
2023/03/29 08:36:42;;;;;;;;;;;;;;;8.66;100.00;101315.44;5294053;28;19931;-67
2023/03/29 08:39:13;;;;;;;;;;;;;;;8.72;100.00;101316.88;5292158;28;20010;-67
2023/03/29 08:41:53;;;;;;;;;;;;;;;8.79;100.00;101310.25;5293991;28;19916;-67
2023/03/29 08:44:44;;;;;;;;;;;;;;;8.86;100.00;101319.56;5294631;28;20420;-65
2023/03/29 08:47:16;;;;;;;;;;;;;;;8.93;100.00;101314.72;5297345;28;19924;-68
2023/03/29 08:49:49;;;;;;;;;;;;;;;8.97;100.00;101317.06;5294066;28;20386;-68
2023/03/29 08:52:43;;;;;;;;;;;;;;;9.03;100.00;101322.03;5292213;28;19916;-68
2023/03/29 08:55:25;;;;;;;;;;;;;;;9.12;100.00;101311.75;5293553;28;20014;-68
2023/03/29 08:57:58;;;;;;;;;;;;;;;9.21;100.00;101317.34;5293388;28;19912;-68
2023/03/29 09:00:36;;;;;;;;;;;;;;;9.27;100.00;101304.63;5295023;28;19920;-68
2023/03/29 09:03:16;;;;;;;;;;;;;;;9.33;100.00;101306.88;5295826;28;19943;-68
2023/03/29 09:05:51;;;;;;;;;;;;;;;9.39;100.00;101303.81;5292820;28;20373;-67
2023/03/29 09:08:23;;;;;;;;;;;;;;;9.47;100.00;101312.16;5288210;28;20182;-68
2023/03/29 09:11:01;;;;;;;;;;;;;;;9.51;100.00;101311.03;5289333;28;20020;-68
2023/03/29 09:13:42;;;;;;;;;;;;;;;9.54;100.00;101302.81;5292770;28;19920;-68
2023/03/29 09:16:23;;;;;;;;;;;;;;;9.55;100.00;101299.22;5292378;28;20365;-68
2023/03/29 09:18:54;;;;;;;;;;;;;;;9.56;100.00;101316.91;5294625;28;19973;-68
2023/03/29 09:21:33;;;;;;;;;;;;;;;9.56;100.00;101316.91;5290850;28;19916;-68
2023/03/29 09:24:17;;;;;;;;;;;;;;;9.53;100.00;101309.13;5291864;28;19954;-68
2023/03/29 09:26:53;;;;;;;;;;;;;;;9.54;100.00;101305.50;5290500;28;20487;-67
2023/03/29 09:29:25;;;;;;;;;;;;;;;9.59;100.00;101313.19;5291747;28;19943;-68
2023/03/29 09:31:57;;;;;;;;;;;;;;;9.61;100.00;101313.94;5292967;28;19959;-68
2023/03/29 09:34:30;;;;;;;;;;;;;;;9.64;100.00;101312.88;5293028;28;20500;-68
2023/03/29 09:37:10;;;;;;;;;;;;;;;9.67;100.00;101316.22;5293985;28;19923;-68
2023/03/29 09:39:42;;;;;;;;;;;;;;;9.74;100.00;101320.19;5294217;28;19920;-67
2023/03/29 09:42:14;;;;;;;;;;;;;;;9.80;100.00;101322.44;5293175;28;19938;-68
2023/03/29 09:44:51;;;;;;;;;;;;;;;9.85;100.00;101311.47;5294348;28;20003;-68
2023/03/29 09:47:25;;;;;;;;;;;;;;;9.88;100.00;101315.78;5295327;28;20331;-68
2023/03/29 09:50:27;;;;;;;;;;;;;;;9.88;100.00;101308.63;5293589;28;19942;-68
2023/03/29 09:52:58;;;;;;;;;;;;;;;9.92;100.00;101310.13;5286676;28;19926;-68
2023/03/29 09:55:32;;;;;;;;;;;;;;;9.94;100.00;101310.03;5290718;28;20381;-68
2023/03/29 09:58:11;;;;;;;;;;;;;;;9.96;100.00;101319.63;5288553;28;20188;-68
2023/03/29 10:00:43;;;;;;;;;;;;;;;10.00;100.00;101315.78;5292044;28;19927;-66
2023/03/29 10:03:33;;;;;;;;;;;;;;;10.01;100.00;101317.50;5294705;28;20394;-66
2023/03/29 10:06:06;;;;;;;;;;;;;;;10.06;100.00;101317.19;5286778;28;19922;-66
2023/03/29 10:08:39;;;;;;;;;;;;;;;10.12;100.00;101307.94;5290260;28;20726;-67
2023/03/29 10:11:19;;;;;;;;;;;;;;;10.20;100.00;101314.47;5289986;28;19962;-68
2023/03/29 10:13:53;;;;;;;;;;;;;;;10.30;100.00;101328.06;5289553;28;19912;-68
2023/03/29 10:16:28;;;;;;;;;;;;;;;10.35;100.00;101312.59;5291022;28;19916;-68
2023/03/29 10:19:17;;;;;;;;;;;;;;;10.37;100.00;101318.69;5292675;28;19927;-68
2023/03/29 10:21:50;;;;;;;;;;;;;;;10.45;100.00;101315.50;5288172;28;19919;-68
2023/03/29 10:24:22;;;;;;;;;;;;;;;10.51;100.00;101309.75;5292428;28;19959;-68
2023/03/29 10:26:56;;;;;;;;;;;;;;;10.60;100.00;101305.56;5285493;28;20704;-68
2023/03/29 10:29:35;;;;;;;;;;;;;;;10.66;100.00;101289.16;5288395;28;19912;-68
2023/03/29 10:32:13;;;;;;;;;;;;;;;10.74;100.00;101292.13;5288323;28;20334;-67
2023/03/29 10:34:45;;;;;;;;;;;;;;;10.86;100.00;101286.91;5288661;28;19977;-68
2023/03/29 10:37:18;;;;;;;;;;;;;;;10.96;100.00;101294.13;5291048;28;20370;-68
2023/03/29 10:39:50;;;;;;;;;;;;;;;11.09;100.00;101288.78;5289926;28;19923;-68
2023/03/29 10:42:23;;;;;;;;;;;;;;;11.18;100.00;101281.94;5290813;28;19916;-68
2023/03/29 10:44:56;;;;;;;;;;;;;;;11.26;100.00;101281.38;5288927;28;20316;-68
2023/03/29 10:47:32;;;;;;;;;;;;;;;11.33;100.00;101270.13;5287193;28;19920;-68
2023/03/29 10:50:04;;;;;;;;;;;;;;;11.46;100.00;101275.41;5287723;28;19922;-68
2023/03/29 10:52:38;;;;;;;;;;;;;;;11.59;100.00;101254.00;5289266;28;20285;-68
2023/03/29 10:55:13;;;;;;;;;;;;;;;11.67;100.00;101258.75;5292750;28;19920;-68
2023/03/29 10:57:51;;;;;;;;;;;;;;;11.72;100.00;101253.94;5288306;28;20509;-68
2023/03/29 11:00:25;;;;;;;;;;;;;;;11.84;100.00;101244.13;5288399;28;19920;-68
2023/03/29 11:03:15;;;;;;;;;;;;;;;11.95;100.00;101247.72;5280481;28;19923;-68
2023/03/29 11:05:52;;;;;;;;;;;;;;;12.06;100.00;101241.56;5285605;28;20375;-67
2023/03/29 11:08:33;;;;;;;;;;;;;;;12.13;100.00;101236.59;5290618;28;19920;-68
2023/03/29 11:11:07;;;;;;;;;;;;;;;12.19;100.00;101237.94;5291491;28;19954;-68
2023/03/29 11:14:08;;;;;;;;;;;;;;;12.26;100.00;101237.34;5285170;28;20072;-67
2023/03/29 11:16:52;;;;;;;;;;;;;;;12.38;100.00;101229.34;5277323;28;20267;-68
2023/03/29 11:19:26;;;;;;;;;;;;;;;12.49;100.00;101226.69;5291701;28;21098;-68
2023/03/29 11:21:58;;;;;;;;;;;;;;;12.59;100.00;101230.34;5292306;28;19915;-68
2023/03/29 11:24:32;;;;;;;;;;;;;;;12.64;100.00;101228.16;5297137;28;19926;-68
2023/03/29 11:27:22;;;;;;;;;;;;;;;12.66;100.00;101226.22;5292003;28;20022;-68
2023/03/29 11:29:57;;;;;;;;;;;;;;;12.74;100.00;101231.78;5294164;28;19922;-68
2023/03/29 11:32:28;;;;;;;;;;;;;;;12.81;100.00;101239.34;5294146;28;19924;-68
2023/03/29 11:35:22;;;;;;;;;;;;;;;12.86;100.00;101237.16;5290328;28;19919;-68
2023/03/29 11:38:00;;;;;;;;;;;;;;;12.97;100.00;101245.19;5296334;28;19927;-68
2023/03/29 11:40:34;;;;;;;;;;;;;;;13.09;100.00;101229.94;5287864;28;19974;-68
2023/03/29 11:43:12;;;;;;;;;;;;;;;13.20;100.00;101232.59;5289435;28;20014;-68
2023/03/29 11:45:48;;;;;;;;;;;;;;;13.28;100.00;101229.28;5293994;28;19916;-68
2023/03/29 11:48:23;;;;;;;;;;;;;;;13.37;100.00;101233.94;5288479;28;19924;-68
2023/03/29 11:50:54;;;;;;;;;;;;;;;13.40;100.00;101228.31;5293978;28;19916;-67
2023/03/29 11:53:32;;;;;;;;;;;;;;;13.44;100.00;101224.44;5288779;28;21532;-68
2023/03/29 11:56:10;;;;;;;;;;;;;;;13.49;100.00;101214.16;5295460;28;20382;-68
2023/03/29 11:58:44;;;;;;;;;;;;;;;13.55;100.00;101215.47;5292328;28;20285;-68
2023/03/29 12:01:21;;;;;;;;;;;;;;;13.65;100.00;101219.09;5290280;28;20006;-68
2023/03/29 12:03:54;;;;;;;;;;;;;;;13.72;100.00;101217.59;5288447;28;19916;-68
2023/03/29 12:06:28;;;;;;;;;;;;;;;13.79;100.00;101219.75;5294578;28;19912;-68
2023/03/29 12:09:08;;;;;;;;;;;;;;;13.87;100.00;101228.88;5287225;28;19920;-68
2023/03/29 12:12:03;;;;;;;;;;;;;;;13.87;100.00;101231.56;5294179;28;19985;-68
2023/03/29 12:14:37;;;;;;;;;;;;;;;13.87;100.00;101225.34;5284362;28;19920;-68
2023/03/29 12:17:13;;;;;;;;;;;;;;;13.92;100.00;101213.25;5295178;28;19920;-68
2023/03/29 12:19:47;;;;;;;;;;;;;;;13.96;100.00;101221.00;5295731;28;19916;-67
2023/03/29 12:22:19;;;;;;;;;;;;;;;14.00;100.00;101217.09;5296314;28;19920;-68
2023/03/29 12:24:53;;;;;;;;;;;;;;;14.01;100.00;101216.97;5291473;28;20028;-67
2023/03/29 12:27:28;;;;;;;;;;;;;;;14.04;100.00;101213.19;5289169;28;19970;-68
2023/03/29 12:30:02;;;;;;;;;;;;;;;14.04;100.00;101218.56;5293158;28;19922;-68
2023/03/29 12:32:42;;;;;;;;;;;;;;;14.05;100.00;101204.13;5285870;28;19963;-67
2023/03/29 12:35:13;;;;;;;;;;;;;;;14.05;100.00;101206.81;5293743;28;19938;-68
2023/03/29 12:38:08;;;;;;;;;;;;;;;14.03;100.00;101204.25;5294354;28;20407;-67
2023/03/29 12:40:44;;;;;;;;;;;;;;;14.06;100.00;101197.81;5287276;28;19927;-68
2023/03/29 12:43:22;;;;;;;;;;;;;;;14.08;100.00;101188.63;5291114;28;19916;-67
2023/03/29 12:45:56;;;;;;;;;;;;;;;14.09;100.00;101176.06;5292393;28;19988;-67
2023/03/29 12:48:29;;;;;;;;;;;;;;;14.12;100.00;101173.13;5293918;28;19924;-68
2023/03/29 12:51:02;;;;;;;;;;;;;;;14.15;100.00;101163.94;5289357;28;19942;-68
2023/03/29 12:53:35;;;;;;;;;;;;;;;14.17;100.00;101165.53;5294737;28;19923;-67
2023/03/29 12:56:18;;;;;;;;;;;;;;;14.21;100.00;101163.41;5292120;28;19955;-67
2023/03/29 12:59:05;;;;;;;;;;;;;;;14.27;100.00;101163.75;5288112;28;19920;-67
2023/03/29 13:01:38;;;;;;;;;;;;;;;14.31;100.00;101159.81;5289425;28;19948;-67
2023/03/29 13:04:12;;;;;;;;;;;;;;;14.37;100.00;101146.84;5289766;28;19938;-67
2023/03/29 13:06:46;;;;;;;;;;;;;;;14.40;100.00;101144.75;5293587;28;19970;-67
2023/03/29 13:09:23;;;;;;;;;;;;;;;14.44;100.00;101135.44;5289735;28;20464;-67
2023/03/29 13:11:57;;;;;;;;;;;;;;;14.47;100.00;101124.41;5294076;28;19923;-68